sensor_id;sensor_type;location;lat;lon;timestamp;P1;durP1;ratioP1;P2;durP2;ratioP2
20322;SDS011;10319;52.206;20.996;2022-09-02T00:00:24;4.47;;;1.00;;
20322;SDS011;10319;52.206;20.996;2022-09-02T00:02:49;2.57;;;0.70;;
20322;SDS011;10319;52.206;20.996;2022-09-02T00:05:15;2.53;;;0.70;;
20322;SDS011;10319;52.206;20.996;2022-09-02T00:07:41;2.97;;;0.60;;
20322;SDS011;10319;52.206;20.996;2022-09-02T00:10:06;2.93;;;0.70;;
20322;SDS011;10319;52.206;20.996;2022-09-02T00:12:31;2.73;;;0.60;;
20322;SDS011;10319;52.206;20.996;2022-09-02T00:14:57;1.03;;;0.33;;
20322;SDS011;10319;52.206;20.996;2022-09-02T00:17:22;2.37;;;0.60;;
20322;SDS011;10319;52.206;20.996;2022-09-02T00:19:47;4.40;;;0.87;;
20322;SDS011;10319;52.206;20.996;2022-09-02T00:22:13;3.17;;;0.67;;
20322;SDS011;10319;52.206;20.996;2022-09-02T00:24:38;2.97;;;0.60;;
20322;SDS011;10319;52.206;20.996;2022-09-02T00:27:04;2.30;;;0.60;;
20322;SDS011;10319;52.206;20.996;2022-09-02T00:29:29;1.57;;;0.50;;
20322;SDS011;10319;52.206;20.996;2022-09-02T00:31:54;3.63;;;0.77;;
20322;SDS011;10319;52.206;20.996;2022-09-02T00:34:20;2.27;;;0.60;;
20322;SDS011;10319;52.206;20.996;2022-09-02T00:36:45;2.13;;;0.40;;
20322;SDS011;10319;52.206;20.996;2022-09-02T00:39:10;2.80;;;0.77;;
20322;SDS011;10319;52.206;20.996;2022-09-02T00:41:36;2.57;;;0.50;;
20322;SDS011;10319;52.206;20.996;2022-09-02T00:44:04;3.20;;;0.80;;
20322;SDS011;10319;52.206;20.996;2022-09-02T00:46:30;4.17;;;0.90;;
20322;SDS011;10319;52.206;20.996;2022-09-02T00:51:21;3.27;;;1.00;;
20322;SDS011;10319;52.206;20.996;2022-09-02T00:53:47;3.90;;;0.67;;
20322;SDS011;10319;52.206;20.996;2022-09-02T00:56:13;4.27;;;0.83;;
20322;SDS011;10319;52.206;20.996;2022-09-02T00:58:40;3.27;;;0.80;;
20322;SDS011;10319;52.206;20.996;2022-09-02T01:01:08;3.00;;;0.83;;
20322;SDS011;10319;52.206;20.996;2022-09-02T01:03:35;2.33;;;0.70;;
20322;SDS011;10319;52.206;20.996;2022-09-02T01:06:00;3.10;;;0.60;;
20322;SDS011;10319;52.206;20.996;2022-09-02T01:08:27;4.23;;;0.80;;
20322;SDS011;10319;52.206;20.996;2022-09-02T01:10:55;2.77;;;0.70;;
20322;SDS011;10319;52.206;20.996;2022-09-02T01:13:21;3.23;;;0.90;;
20322;SDS011;10319;52.206;20.996;2022-09-02T01:15:54;2.40;;;0.60;;
20322;SDS011;10319;52.206;20.996;2022-09-02T01:18:20;1.77;;;0.60;;
20322;SDS011;10319;52.206;20.996;2022-09-02T01:20:48;4.00;;;0.77;;
20322;SDS011;10319;52.206;20.996;2022-09-02T01:23:13;2.77;;;0.80;;
20322;SDS011;10319;52.206;20.996;2022-09-02T01:25:40;5.00;;;0.83;;
20322;SDS011;10319;52.206;20.996;2022-09-02T01:28:08;2.13;;;0.47;;
20322;SDS011;10319;52.206;20.996;2022-09-02T01:30:34;2.60;;;0.60;;
20322;SDS011;10319;52.206;20.996;2022-09-02T01:33:00;2.90;;;0.80;;
20322;SDS011;10319;52.206;20.996;2022-09-02T01:35:26;2.40;;;0.70;;
20322;SDS011;10319;52.206;20.996;2022-09-02T01:37:53;2.67;;;0.67;;
20322;SDS011;10319;52.206;20.996;2022-09-02T01:40:18;2.13;;;0.40;;
20322;SDS011;10319;52.206;20.996;2022-09-02T01:42:44;3.90;;;0.70;;
20322;SDS011;10319;52.206;20.996;2022-09-02T01:45:10;3.40;;;0.77;;
20322;SDS011;10319;52.206;20.996;2022-09-02T01:47:38;3.00;;;0.93;;
20322;SDS011;10319;52.206;20.996;2022-09-02T01:50:04;2.47;;;0.50;;
20322;SDS011;10319;52.206;20.996;2022-09-02T01:52:30;2.30;;;0.70;;
20322;SDS011;10319;52.206;20.996;2022-09-02T01:54:55;1.43;;;0.50;;
20322;SDS011;10319;52.206;20.996;2022-09-02T01:57:20;2.13;;;0.67;;
20322;SDS011;10319;52.206;20.996;2022-09-02T01:59:48;2.30;;;0.53;;
20322;SDS011;10319;52.206;20.996;2022-09-02T02:02:14;3.03;;;0.67;;
20322;SDS011;10319;52.206;20.996;2022-09-02T02:04:39;4.10;;;0.87;;
20322;SDS011;10319;52.206;20.996;2022-09-02T02:07:05;2.83;;;0.70;;
20322;SDS011;10319;52.206;20.996;2022-09-02T02:09:30;2.47;;;0.60;;
20322;SDS011;10319;52.206;20.996;2022-09-02T02:11:55;1.30;;;0.50;;
20322;SDS011;10319;52.206;20.996;2022-09-02T02:14:21;1.90;;;0.50;;
20322;SDS011;10319;52.206;20.996;2022-09-02T02:16:47;2.73;;;0.70;;
20322;SDS011;10319;52.206;20.996;2022-09-02T02:19:12;2.37;;;0.60;;
20322;SDS011;10319;52.206;20.996;2022-09-02T02:21:37;2.73;;;0.70;;
20322;SDS011;10319;52.206;20.996;2022-09-02T02:24:03;3.30;;;0.50;;
20322;SDS011;10319;52.206;20.996;2022-09-02T02:26:29;1.67;;;0.53;;
20322;SDS011;10319;52.206;20.996;2022-09-02T02:28:54;4.07;;;0.83;;
20322;SDS011;10319;52.206;20.996;2022-09-02T02:31:20;1.97;;;0.40;;
20322;SDS011;10319;52.206;20.996;2022-09-02T02:33:45;2.10;;;0.60;;
20322;SDS011;10319;52.206;20.996;2022-09-02T02:36:11;2.70;;;0.60;;
20322;SDS011;10319;52.206;20.996;2022-09-02T02:38:37;1.10;;;0.60;;
20322;SDS011;10319;52.206;20.996;2022-09-02T02:41:04;2.13;;;0.57;;
20322;SDS011;10319;52.206;20.996;2022-09-02T02:43:30;2.53;;;0.57;;
20322;SDS011;10319;52.206;20.996;2022-09-02T02:45:55;2.27;;;0.67;;
20322;SDS011;10319;52.206;20.996;2022-09-02T02:48:21;1.90;;;0.50;;
20322;SDS011;10319;52.206;20.996;2022-09-02T02:50:46;3.00;;;0.70;;
20322;SDS011;10319;52.206;20.996;2022-09-02T02:53:11;2.33;;;0.57;;
20322;SDS011;10319;52.206;20.996;2022-09-02T02:55:37;3.83;;;0.80;;
20322;SDS011;10319;52.206;20.996;2022-09-02T02:58:02;2.87;;;0.60;;
20322;SDS011;10319;52.206;20.996;2022-09-02T03:00:28;1.97;;;0.60;;
20322;SDS011;10319;52.206;20.996;2022-09-02T03:02:55;3.80;;;0.77;;
20322;SDS011;10319;52.206;20.996;2022-09-02T03:05:20;3.27;;;0.70;;
20322;SDS011;10319;52.206;20.996;2022-09-02T03:07:45;3.60;;;0.90;;
20322;SDS011;10319;52.206;20.996;2022-09-02T03:10:11;3.27;;;0.80;;
20322;SDS011;10319;52.206;20.996;2022-09-02T03:12:37;2.63;;;0.67;;
20322;SDS011;10319;52.206;20.996;2022-09-02T03:15:03;1.60;;;0.60;;
20322;SDS011;10319;52.206;20.996;2022-09-02T03:17:29;3.37;;;0.63;;
20322;SDS011;10319;52.206;20.996;2022-09-02T03:19:54;2.60;;;0.47;;
20322;SDS011;10319;52.206;20.996;2022-09-02T03:22:21;2.63;;;0.50;;
20322;SDS011;10319;52.206;20.996;2022-09-02T03:24:46;2.33;;;0.50;;
20322;SDS011;10319;52.206;20.996;2022-09-02T03:27:12;2.13;;;0.40;;
20322;SDS011;10319;52.206;20.996;2022-09-02T03:29:37;3.13;;;0.53;;
20322;SDS011;10319;52.206;20.996;2022-09-02T03:32:03;3.07;;;0.70;;
20322;SDS011;10319;52.206;20.996;2022-09-02T03:34:29;2.73;;;0.50;;
20322;SDS011;10319;52.206;20.996;2022-09-02T03:36:54;2.67;;;0.60;;
20322;SDS011;10319;52.206;20.996;2022-09-02T03:39:20;1.53;;;0.50;;
20322;SDS011;10319;52.206;20.996;2022-09-02T03:41:45;1.07;;;0.50;;
20322;SDS011;10319;52.206;20.996;2022-09-02T03:44:12;1.83;;;0.43;;
20322;SDS011;10319;52.206;20.996;2022-09-02T03:46:37;2.50;;;0.60;;
20322;SDS011;10319;52.206;20.996;2022-09-02T03:49:03;1.70;;;0.57;;
20322;SDS011;10319;52.206;20.996;2022-09-02T03:51:28;4.83;;;0.93;;
20322;SDS011;10319;52.206;20.996;2022-09-02T03:53:53;1.60;;;0.37;;
20322;SDS011;10319;52.206;20.996;2022-09-02T03:56:19;3.80;;;0.60;;
20322;SDS011;10319;52.206;20.996;2022-09-02T03:58:45;2.13;;;0.67;;
20322;SDS011;10319;52.206;20.996;2022-09-02T04:01:28;4.63;;;0.77;;
20322;SDS011;10319;52.206;20.996;2022-09-02T04:03:54;2.93;;;0.63;;
20322;SDS011;10319;52.206;20.996;2022-09-02T04:06:20;2.60;;;0.60;;
20322;SDS011;10319;52.206;20.996;2022-09-02T04:08:46;4.13;;;0.90;;
20322;SDS011;10319;52.206;20.996;2022-09-02T04:11:13;4.27;;;0.90;;
20322;SDS011;10319;52.206;20.996;2022-09-02T04:13:40;5.00;;;0.87;;
20322;SDS011;10319;52.206;20.996;2022-09-02T04:16:06;2.37;;;0.60;;
20322;SDS011;10319;52.206;20.996;2022-09-02T04:18:32;2.50;;;0.60;;
20322;SDS011;10319;52.206;20.996;2022-09-02T04:20:58;4.10;;;0.80;;
20322;SDS011;10319;52.206;20.996;2022-09-02T04:23:23;3.53;;;0.60;;
20322;SDS011;10319;52.206;20.996;2022-09-02T04:25:48;2.27;;;0.60;;
20322;SDS011;10319;52.206;20.996;2022-09-02T04:28:14;3.60;;;0.80;;
20322;SDS011;10319;52.206;20.996;2022-09-02T04:30:39;2.80;;;0.63;;
20322;SDS011;10319;52.206;20.996;2022-09-02T04:33:05;2.87;;;0.67;;
20322;SDS011;10319;52.206;20.996;2022-09-02T04:35:30;3.03;;;0.80;;
20322;SDS011;10319;52.206;20.996;2022-09-02T04:37:56;2.43;;;0.70;;
20322;SDS011;10319;52.206;20.996;2022-09-02T04:40:21;3.80;;;0.87;;
20322;SDS011;10319;52.206;20.996;2022-09-02T04:42:48;3.50;;;0.83;;
20322;SDS011;10319;52.206;20.996;2022-09-02T04:45:13;3.73;;;0.83;;
20322;SDS011;10319;52.206;20.996;2022-09-02T04:47:39;4.23;;;1.00;;
20322;SDS011;10319;52.206;20.996;2022-09-02T04:50:04;4.13;;;0.70;;
20322;SDS011;10319;52.206;20.996;2022-09-02T04:52:30;3.67;;;0.83;;
20322;SDS011;10319;52.206;20.996;2022-09-02T04:54:55;2.77;;;0.60;;
20322;SDS011;10319;52.206;20.996;2022-09-02T04:57:20;2.57;;;0.63;;
20322;SDS011;10319;52.206;20.996;2022-09-02T04:59:46;3.93;;;1.00;;
20322;SDS011;10319;52.206;20.996;2022-09-02T05:02:11;2.77;;;0.93;;
20322;SDS011;10319;52.206;20.996;2022-09-02T05:04:36;5.60;;;0.90;;
20322;SDS011;10319;52.206;20.996;2022-09-02T05:07:02;3.97;;;0.70;;
20322;SDS011;10319;52.206;20.996;2022-09-02T05:09:27;3.37;;;0.77;;
20322;SDS011;10319;52.206;20.996;2022-09-02T05:11:53;4.07;;;0.80;;
20322;SDS011;10319;52.206;20.996;2022-09-02T05:14:21;4.00;;;1.00;;
20322;SDS011;10319;52.206;20.996;2022-09-02T05:16:47;4.67;;;0.90;;
20322;SDS011;10319;52.206;20.996;2022-09-02T05:19:13;6.20;;;0.90;;
20322;SDS011;10319;52.206;20.996;2022-09-02T05:21:40;4.47;;;1.03;;
20322;SDS011;10319;52.206;20.996;2022-09-02T05:24:05;1.50;;;0.60;;
20322;SDS011;10319;52.206;20.996;2022-09-02T05:26:30;2.93;;;0.60;;
20322;SDS011;10319;52.206;20.996;2022-09-02T05:29:00;2.93;;;0.60;;
20322;SDS011;10319;52.206;20.996;2022-09-02T05:31:26;7.50;;;1.10;;
20322;SDS011;10319;52.206;20.996;2022-09-02T05:33:52;4.30;;;1.10;;
20322;SDS011;10319;52.206;20.996;2022-09-02T05:36:19;6.23;;;1.40;;
20322;SDS011;10319;52.206;20.996;2022-09-02T05:38:44;6.47;;;1.10;;
20322;SDS011;10319;52.206;20.996;2022-09-02T05:41:11;4.37;;;1.00;;
20322;SDS011;10319;52.206;20.996;2022-09-02T05:43:38;4.60;;;0.90;;
20322;SDS011;10319;52.206;20.996;2022-09-02T05:46:04;6.20;;;1.00;;
20322;SDS011;10319;52.206;20.996;2022-09-02T05:48:30;2.93;;;0.87;;
20322;SDS011;10319;52.206;20.996;2022-09-02T05:51:14;5.63;;;0.97;;
20322;SDS011;10319;52.206;20.996;2022-09-02T05:53:39;3.57;;;0.90;;
20322;SDS011;10319;52.206;20.996;2022-09-02T05:56:05;6.00;;;1.30;;
20322;SDS011;10319;52.206;20.996;2022-09-02T05:58:30;5.47;;;0.93;;
20322;SDS011;10319;52.206;20.996;2022-09-02T06:00:56;5.80;;;1.17;;
20322;SDS011;10319;52.206;20.996;2022-09-02T06:03:21;6.10;;;1.07;;
20322;SDS011;10319;52.206;20.996;2022-09-02T06:05:56;5.60;;;1.17;;
20322;SDS011;10319;52.206;20.996;2022-09-02T06:08:22;4.90;;;1.10;;
20322;SDS011;10319;52.206;20.996;2022-09-02T06:10:47;5.23;;;1.20;;
20322;SDS011;10319;52.206;20.996;2022-09-02T06:13:12;4.13;;;0.83;;
20322;SDS011;10319;52.206;20.996;2022-09-02T06:15:40;5.00;;;0.93;;
20322;SDS011;10319;52.206;20.996;2022-09-02T06:18:08;3.67;;;0.90;;
20322;SDS011;10319;52.206;20.996;2022-09-02T06:20:33;7.43;;;1.33;;
20322;SDS011;10319;52.206;20.996;2022-09-02T06:22:58;4.63;;;0.83;;
20322;SDS011;10319;52.206;20.996;2022-09-02T06:25:23;5.17;;;1.10;;
20322;SDS011;10319;52.206;20.996;2022-09-02T06:27:48;5.97;;;1.03;;
20322;SDS011;10319;52.206;20.996;2022-09-02T06:30:14;3.90;;;1.00;;
20322;SDS011;10319;52.206;20.996;2022-09-02T06:32:39;4.40;;;0.80;;
20322;SDS011;10319;52.206;20.996;2022-09-02T06:35:04;3.17;;;0.70;;
20322;SDS011;10319;52.206;20.996;2022-09-02T06:37:32;4.53;;;0.90;;
20322;SDS011;10319;52.206;20.996;2022-09-02T06:39:57;3.50;;;0.77;;
20322;SDS011;10319;52.206;20.996;2022-09-02T06:42:22;3.20;;;0.90;;
20322;SDS011;10319;52.206;20.996;2022-09-02T06:44:47;3.80;;;0.50;;
20322;SDS011;10319;52.206;20.996;2022-09-02T06:47:13;1.50;;;0.60;;
20322;SDS011;10319;52.206;20.996;2022-09-02T06:49:38;3.57;;;0.80;;
20322;SDS011;10319;52.206;20.996;2022-09-02T06:52:03;1.90;;;0.53;;
20322;SDS011;10319;52.206;20.996;2022-09-02T06:54:29;3.60;;;0.50;;
20322;SDS011;10319;52.206;20.996;2022-09-02T06:56:55;3.90;;;0.60;;
20322;SDS011;10319;52.206;20.996;2022-09-02T06:59:20;6.63;;;1.10;;
20322;SDS011;10319;52.206;20.996;2022-09-02T07:01:45;3.73;;;0.67;;
20322;SDS011;10319;52.206;20.996;2022-09-02T07:04:11;2.83;;;0.50;;
20322;SDS011;10319;52.206;20.996;2022-09-02T07:06:55;2.10;;;0.50;;
20322;SDS011;10319;52.206;20.996;2022-09-02T07:09:22;3.87;;;0.90;;
20322;SDS011;10319;52.206;20.996;2022-09-02T07:11:48;4.63;;;0.80;;
20322;SDS011;10319;52.206;20.996;2022-09-02T07:14:14;4.10;;;0.80;;
20322;SDS011;10319;52.206;20.996;2022-09-02T07:16:41;2.60;;;0.75;;
20322;SDS011;10319;52.206;20.996;2022-09-02T07:19:07;4.15;;;0.90;;
20322;SDS011;10319;52.206;20.996;2022-09-02T07:21:32;3.27;;;0.70;;
20322;SDS011;10319;52.206;20.996;2022-09-02T07:23:58;5.60;;;0.80;;
20322;SDS011;10319;52.206;20.996;2022-09-02T07:26:24;3.38;;;0.80;;
20322;SDS011;10319;52.206;20.996;2022-09-02T07:28:49;5.43;;;0.60;;
20322;SDS011;10319;52.206;20.996;2022-09-02T07:31:15;6.45;;;0.80;;
20322;SDS011;10319;52.206;20.996;2022-09-02T07:33:41;3.42;;;0.88;;
20322;SDS011;10319;52.206;20.996;2022-09-02T07:36:06;3.20;;;0.60;;
20322;SDS011;10319;52.206;20.996;2022-09-02T07:38:34;2.30;;;0.60;;
20322;SDS011;10319;52.206;20.996;2022-09-02T07:40:59;4.65;;;0.65;;
20322;SDS011;10319;52.206;20.996;2022-09-02T07:43:25;3.50;;;0.63;;
20322;SDS011;10319;52.206;20.996;2022-09-02T07:45:51;3.20;;;0.60;;
20322;SDS011;10319;52.206;20.996;2022-09-02T07:48:17;1.98;;;0.52;;
20322;SDS011;10319;52.206;20.996;2022-09-02T07:50:42;4.55;;;0.50;;
20322;SDS011;10319;52.206;20.996;2022-09-02T07:53:07;3.10;;;0.47;;
20322;SDS011;10319;52.206;20.996;2022-09-02T07:55:33;1.58;;;0.50;;
20322;SDS011;10319;52.206;20.996;2022-09-02T07:58:00;1.50;;;0.40;;
20322;SDS011;10319;52.206;20.996;2022-09-02T08:00:25;3.85;;;0.55;;
20322;SDS011;10319;52.206;20.996;2022-09-02T08:02:51;2.28;;;0.50;;
20322;SDS011;10319;52.206;20.996;2022-09-02T08:05:16;1.73;;;0.50;;
20322;SDS011;10319;52.206;20.996;2022-09-02T08:07:42;1.65;;;0.40;;
20322;SDS011;10319;52.206;20.996;2022-09-02T08:10:07;1.13;;;0.30;;
20322;SDS011;10319;52.206;20.996;2022-09-02T08:12:34;2.88;;;0.52;;
20322;SDS011;10319;52.206;20.996;2022-09-02T08:15:00;3.22;;;0.60;;
20322;SDS011;10319;52.206;20.996;2022-09-02T08:17:25;4.25;;;0.47;;
20322;SDS011;10319;52.206;20.996;2022-09-02T08:19:51;1.27;;;0.30;;
20322;SDS011;10319;52.206;20.996;2022-09-02T08:22:16;3.95;;;0.40;;
20322;SDS011;10319;52.206;20.996;2022-09-02T08:24:41;1.70;;;0.55;;
20322;SDS011;10319;52.206;20.996;2022-09-02T08:27:06;3.08;;;0.55;;
20322;SDS011;10319;52.206;20.996;2022-09-02T08:29:32;2.72;;;0.57;;
20322;SDS011;10319;52.206;20.996;2022-09-02T08:31:57;4.18;;;0.70;;
20322;SDS011;10319;52.206;20.996;2022-09-02T08:34:22;4.65;;;0.60;;
20322;SDS011;10319;52.206;20.996;2022-09-02T08:36:48;3.85;;;0.65;;
20322;SDS011;10319;52.206;20.996;2022-09-02T08:39:13;3.38;;;0.52;;
20322;SDS011;10319;52.206;20.996;2022-09-02T08:41:52;3.63;;;0.80;;
20322;SDS011;10319;52.206;20.996;2022-09-02T08:44:21;5.13;;;0.93;;
20322;SDS011;10319;52.206;20.996;2022-09-02T08:46:48;4.03;;;0.80;;
20322;SDS011;10319;52.206;20.996;2022-09-02T08:49:21;4.00;;;0.82;;
20322;SDS011;10319;52.206;20.996;2022-09-02T08:51:50;3.17;;;0.57;;
20322;SDS011;10319;52.206;20.996;2022-09-02T08:56:41;4.38;;;0.70;;
20322;SDS011;10319;52.206;20.996;2022-09-02T08:59:06;4.38;;;0.70;;
20322;SDS011;10319;52.206;20.996;2022-09-02T09:17:20;2.75;;;0.40;;
20322;SDS011;10319;52.206;20.996;2022-09-02T09:19:54;2.13;;;0.43;;
20322;SDS011;10319;52.206;20.996;2022-09-02T09:22:30;3.35;;;0.32;;
20322;SDS011;10319;52.206;20.996;2022-09-02T09:24:55;2.90;;;0.52;;
20322;SDS011;10319;52.206;20.996;2022-09-02T09:27:21;4.68;;;0.70;;
20322;SDS011;10319;52.206;20.996;2022-09-02T09:29:50;2.47;;;0.47;;
20322;SDS011;10319;52.206;20.996;2022-09-02T09:34:53;3.60;;;0.50;;
20322;SDS011;10319;52.206;20.996;2022-09-02T09:37:36;3.60;;;0.43;;
20322;SDS011;10319;52.206;20.996;2022-09-02T09:42:42;4.28;;;0.60;;
20322;SDS011;10319;52.206;20.996;2022-09-02T09:47:40;2.20;;;0.30;;
20322;SDS011;10319;52.206;20.996;2022-09-02T09:50:09;4.38;;;0.45;;
20322;SDS011;10319;52.206;20.996;2022-09-02T09:52:35;2.42;;;0.40;;
20322;SDS011;10319;52.206;20.996;2022-09-02T09:55:05;6.00;;;0.57;;
20322;SDS011;10319;52.206;20.996;2022-09-02T09:57:31;4.22;;;0.60;;
20322;SDS011;10319;52.206;20.996;2022-09-02T09:59:56;2.40;;;0.40;;
20322;SDS011;10319;52.206;20.996;2022-09-02T10:02:23;4.85;;;0.45;;
20322;SDS011;10319;52.206;20.996;2022-09-02T10:04:48;3.17;;;0.73;;
20322;SDS011;10319;52.206;20.996;2022-09-02T10:07:14;2.63;;;0.40;;
20322;SDS011;10319;52.206;20.996;2022-09-02T10:10:07;1.35;;;0.32;;
20322;SDS011;10319;52.206;20.996;2022-09-02T10:12:33;2.80;;;0.50;;
20322;SDS011;10319;52.206;20.996;2022-09-02T10:14:58;2.13;;;0.50;;
20322;SDS011;10319;52.206;20.996;2022-09-02T10:25:53;4.72;;;0.70;;
20322;SDS011;10319;52.206;20.996;2022-09-02T10:30:39;3.58;;;0.60;;
20322;SDS011;10319;52.206;20.996;2022-09-02T10:33:21;2.88;;;0.47;;
20322;SDS011;10319;52.206;20.996;2022-09-02T10:35:50;2.95;;;0.75;;
20322;SDS011;10319;52.206;20.996;2022-09-02T10:38:34;4.60;;;0.50;;
20322;SDS011;10319;52.206;20.996;2022-09-02T10:41:08;1.73;;;0.40;;
20322;SDS011;10319;52.206;20.996;2022-09-02T10:46:16;2.28;;;0.20;;
20322;SDS011;10319;52.206;20.996;2022-09-02T10:51:32;0.57;;;0.20;;
20322;SDS011;10319;52.206;20.996;2022-09-02T10:54:19;1.35;;;0.40;;
20322;SDS011;10319;52.206;20.996;2022-09-02T10:56:51;1.92;;;0.40;;
20322;SDS011;10319;52.206;20.996;2022-09-02T10:59:20;1.23;;;0.30;;
20322;SDS011;10319;52.206;20.996;2022-09-02T11:01:51;5.40;;;0.75;;
20322;SDS011;10319;52.206;20.996;2022-09-02T11:04:19;0.80;;;0.30;;
20322;SDS011;10319;52.206;20.996;2022-09-02T11:06:46;3.72;;;0.25;;
20322;SDS011;10319;52.206;20.996;2022-09-02T11:09:20;1.35;;;0.20;;
20322;SDS011;10319;52.206;20.996;2022-09-02T11:12:03;0.50;;;0.10;;
20322;SDS011;10319;52.206;20.996;2022-09-02T11:14:42;1.60;;;0.40;;
20322;SDS011;10319;52.206;20.996;2022-09-02T11:17:13;2.30;;;0.38;;
20322;SDS011;10319;52.206;20.996;2022-09-02T11:19:43;1.13;;;0.20;;
20322;SDS011;10319;52.206;20.996;2022-09-02T11:22:27;3.50;;;0.47;;
20322;SDS011;10319;52.206;20.996;2022-09-02T11:24:57;2.22;;;0.30;;
20322;SDS011;10319;52.206;20.996;2022-09-02T11:32:45;1.27;;;0.40;;
20322;SDS011;10319;52.206;20.996;2022-09-02T11:35:44;0.45;;;0.20;;
20322;SDS011;10319;52.206;20.996;2022-09-02T11:40:52;4.68;;;0.50;;
20322;SDS011;10319;52.206;20.996;2022-09-02T11:53:34;2.38;;;0.35;;
20322;SDS011;10319;52.206;20.996;2022-09-02T11:56:06;2.00;;;0.32;;
20322;SDS011;10319;52.206;20.996;2022-09-02T11:58:36;3.17;;;0.40;;
20322;SDS011;10319;52.206;20.996;2022-09-02T12:01:03;1.65;;;0.35;;
20322;SDS011;10319;52.206;20.996;2022-09-02T12:03:29;1.15;;;0.40;;
20322;SDS011;10319;52.206;20.996;2022-09-02T12:06:12;0.47;;;0.20;;
20322;SDS011;10319;52.206;20.996;2022-09-02T12:11:07;0.38;;;0.17;;
20322;SDS011;10319;52.206;20.996;2022-09-02T12:13:39;1.38;;;0.20;;
20322;SDS011;10319;52.206;20.996;2022-09-02T12:18:36;2.78;;;0.50;;
20322;SDS011;10319;52.206;20.996;2022-09-02T12:21:02;0.60;;;0.20;;
20322;SDS011;10319;52.206;20.996;2022-09-02T12:26:14;3.70;;;0.50;;
20322;SDS011;10319;52.206;20.996;2022-09-02T12:28:40;0.75;;;0.30;;
20322;SDS011;10319;52.206;20.996;2022-09-02T12:31:08;4.55;;;0.60;;
20322;SDS011;10319;52.206;20.996;2022-09-02T12:33:40;2.55;;;0.20;;
20322;SDS011;10319;52.206;20.996;2022-09-02T12:36:07;2.22;;;0.30;;
20322;SDS011;10319;52.206;20.996;2022-09-02T12:38:34;1.27;;;0.13;;
20322;SDS011;10319;52.206;20.996;2022-09-02T12:43:33;1.13;;;0.20;;
20322;SDS011;10319;52.206;20.996;2022-09-02T12:46:06;1.25;;;0.40;;
20322;SDS011;10319;52.206;20.996;2022-09-02T12:48:38;1.92;;;0.22;;
20322;SDS011;10319;52.206;20.996;2022-09-02T12:51:05;2.25;;;0.28;;
20322;SDS011;10319;52.206;20.996;2022-09-02T12:53:37;1.80;;;0.40;;
20322;SDS011;10319;52.206;20.996;2022-09-02T12:56:05;2.72;;;0.30;;
20322;SDS011;10319;52.206;20.996;2022-09-02T12:58:37;1.75;;;0.25;;
20322;SDS011;10319;52.206;20.996;2022-09-02T13:01:08;3.00;;;0.43;;
20322;SDS011;10319;52.206;20.996;2022-09-02T13:16:38;3.42;;;0.40;;
20322;SDS011;10319;52.206;20.996;2022-09-02T13:19:16;1.08;;;0.22;;
20322;SDS011;10319;52.206;20.996;2022-09-02T13:22:02;0.45;;;0.10;;
20322;SDS011;10319;52.206;20.996;2022-09-02T13:24:46;3.15;;;0.22;;
20322;SDS011;10319;52.206;20.996;2022-09-02T13:30:01;1.58;;;0.40;;
20322;SDS011;10319;52.206;20.996;2022-09-02T13:32:29;3.85;;;0.40;;
20322;SDS011;10319;52.206;20.996;2022-09-02T13:34:55;3.63;;;0.47;;
20322;SDS011;10319;52.206;20.996;2022-09-02T13:39:56;0.60;;;0.13;;
20322;SDS011;10319;52.206;20.996;2022-09-02T13:42:22;3.08;;;0.40;;
20322;SDS011;10319;52.206;20.996;2022-09-02T13:44:47;1.25;;;0.20;;
20322;SDS011;10319;52.206;20.996;2022-09-02T13:47:14;2.22;;;0.28;;
20322;SDS011;10319;52.206;20.996;2022-09-02T13:49:40;0.73;;;0.22;;
20322;SDS011;10319;52.206;20.996;2022-09-02T13:52:06;0.52;;;0.10;;
20322;SDS011;10319;52.206;20.996;2022-09-02T13:54:36;1.27;;;0.10;;
20322;SDS011;10319;52.206;20.996;2022-09-02T13:57:05;1.52;;;0.20;;
20322;SDS011;10319;52.206;20.996;2022-09-02T13:59:38;3.22;;;0.50;;
20322;SDS011;10319;52.206;20.996;2022-09-02T14:04:49;2.08;;;0.20;;
20322;SDS011;10319;52.206;20.996;2022-09-02T14:07:15;1.15;;;0.22;;
20322;SDS011;10319;52.206;20.996;2022-09-02T14:09:41;1.73;;;0.38;;
20322;SDS011;10319;52.206;20.996;2022-09-02T14:12:08;2.08;;;0.30;;
20322;SDS011;10319;52.206;20.996;2022-09-02T14:14:33;2.38;;;0.50;;
20322;SDS011;10319;52.206;20.996;2022-09-02T14:17:18;1.40;;;0.40;;
20322;SDS011;10319;52.206;20.996;2022-09-02T14:19:45;1.65;;;0.30;;
20322;SDS011;10319;52.206;20.996;2022-09-02T14:22:21;2.20;;;0.40;;
20322;SDS011;10319;52.206;20.996;2022-09-02T14:24:47;2.03;;;0.40;;
20322;SDS011;10319;52.206;20.996;2022-09-02T14:27:16;4.35;;;0.60;;
20322;SDS011;10319;52.206;20.996;2022-09-02T14:29:43;2.17;;;0.30;;
20322;SDS011;10319;52.206;20.996;2022-09-02T14:32:19;1.65;;;0.40;;
20322;SDS011;10319;52.206;20.996;2022-09-02T14:34:45;1.73;;;0.45;;
20322;SDS011;10319;52.206;20.996;2022-09-02T14:37:21;0.98;;;0.30;;
20322;SDS011;10319;52.206;20.996;2022-09-02T14:40:01;1.65;;;0.43;;
20322;SDS011;10319;52.206;20.996;2022-09-02T14:42:27;1.25;;;0.20;;
20322;SDS011;10319;52.206;20.996;2022-09-02T14:44:53;3.53;;;0.65;;
20322;SDS011;10319;52.206;20.996;2022-09-02T14:47:18;1.35;;;0.35;;
20322;SDS011;10319;52.206;20.996;2022-09-02T14:49:45;3.17;;;0.40;;
20322;SDS011;10319;52.206;20.996;2022-09-02T14:52:18;2.92;;;0.32;;
20322;SDS011;10319;52.206;20.996;2022-09-02T14:54:44;2.30;;;0.30;;
20322;SDS011;10319;52.206;20.996;2022-09-02T14:57:25;1.38;;;0.32;;
20322;SDS011;10319;52.206;20.996;2022-09-02T14:59:53;1.98;;;0.47;;
20322;SDS011;10319;52.206;20.996;2022-09-02T15:02:29;1.35;;;0.35;;
20322;SDS011;10319;52.206;20.996;2022-09-02T15:05:01;1.85;;;0.30;;
20322;SDS011;10319;52.206;20.996;2022-09-02T15:07:27;4.88;;;0.50;;
20322;SDS011;10319;52.206;20.996;2022-09-02T15:09:52;3.20;;;0.35;;
20322;SDS011;10319;52.206;20.996;2022-09-02T15:12:28;1.70;;;0.30;;
20322;SDS011;10319;52.206;20.996;2022-09-02T15:14:54;1.08;;;0.30;;
20322;SDS011;10319;52.206;20.996;2022-09-02T15:17:19;1.42;;;0.35;;
20322;SDS011;10319;52.206;20.996;2022-09-02T15:19:45;1.73;;;0.30;;
20322;SDS011;10319;52.206;20.996;2022-09-02T15:22:10;1.83;;;0.30;;
20322;SDS011;10319;52.206;20.996;2022-09-02T15:24:35;1.45;;;0.20;;
20322;SDS011;10319;52.206;20.996;2022-09-02T15:27:00;0.70;;;0.20;;
20322;SDS011;10319;52.206;20.996;2022-09-02T15:29:26;0.52;;;0.30;;
20322;SDS011;10319;52.206;20.996;2022-09-02T15:31:51;2.85;;;0.25;;
20322;SDS011;10319;52.206;20.996;2022-09-02T15:34:16;1.48;;;0.40;;
20322;SDS011;10319;52.206;20.996;2022-09-02T15:36:42;1.40;;;0.27;;
20322;SDS011;10319;52.206;20.996;2022-09-02T15:39:07;0.50;;;0.20;;
20322;SDS011;10319;52.206;20.996;2022-09-02T15:41:32;1.57;;;0.37;;
20322;SDS011;10319;52.206;20.996;2022-09-02T15:43:58;3.85;;;0.43;;
20322;SDS011;10319;52.206;20.996;2022-09-02T15:46:28;2.25;;;0.40;;
20322;SDS011;10319;52.206;20.996;2022-09-02T15:48:54;1.40;;;0.40;;
20322;SDS011;10319;52.206;20.996;2022-09-02T15:51:21;1.33;;;0.20;;
20322;SDS011;10319;52.206;20.996;2022-09-02T15:53:46;1.23;;;0.20;;
20322;SDS011;10319;52.206;20.996;2022-09-02T15:56:20;2.33;;;0.30;;
20322;SDS011;10319;52.206;20.996;2022-09-02T15:58:45;1.80;;;0.40;;
20322;SDS011;10319;52.206;20.996;2022-09-02T16:01:11;1.95;;;0.28;;
20322;SDS011;10319;52.206;20.996;2022-09-02T16:03:36;0.82;;;0.20;;
20322;SDS011;10319;52.206;20.996;2022-09-02T16:06:02;1.63;;;0.27;;
20322;SDS011;10319;52.206;20.996;2022-09-02T16:08:27;1.55;;;0.20;;